Terminal Aerodrome Forecast
Issued by NWS

Home | Current Version | Previous Version | Text Only | Print | Product List | Glossary On
Versions: 1 2 3 4 5 6 7 8 9 10 11 12
000
FTUS41 KBTV 222339 AAA
TAFMPV
TAF AMD
KMPV 222339Z 2300/2324 00000KT P6SM SCT200
     FM230300 00000KT P6SM OVC035
     FM231400 18007KT P6SM OVC035
     FM232200 23009KT P6SM VCSH OVC035=

USA.gov is the U.S. government's official web portal to all federal, state and local government web resources and services.